createdAt,value
2019-04-22T00:00:04.604Z,10
2019-04-22T00:00:54.181Z,10.1
2019-04-22T00:01:43.563Z,10.1
2019-04-22T00:02:39.915Z,10.1
2019-04-22T00:03:33.803Z,10.1
2019-04-22T00:04:17.684Z,10.1
2019-04-22T00:05:13.010Z,10.1
2019-04-22T00:06:17.632Z,10.1
2019-04-22T00:07:02.950Z,10.1
2019-04-22T00:08:48.947Z,10.1
2019-04-22T00:09:38.276Z,10.1
2019-04-22T00:10:32.017Z,10
2019-04-22T00:11:24.945Z,10
2019-04-22T00:12:13.581Z,10
2019-04-22T00:12:59.637Z,10
2019-04-22T00:13:51.748Z,10
2019-04-22T00:14:33.621Z,10
2019-04-22T00:15:25.723Z,10.1
2019-04-22T00:16:14.149Z,10
2019-04-22T00:17:29.889Z,10
2019-04-22T00:18:07.249Z,10.1
2019-04-22T00:19:00.808Z,10
2019-04-22T00:19:35.618Z,10
2019-04-22T00:20:29.770Z,10
2019-04-22T00:21:19.305Z,10
2019-04-22T00:22:14.939Z,10
2019-04-22T00:22:56.269Z,10
2019-04-22T00:23:45.018Z,10
2019-04-22T00:24:36.494Z,10
2019-04-22T00:26:22.260Z,10
2019-04-22T00:27:13.548Z,10
2019-04-22T00:28:02.173Z,10
2019-04-22T00:28:49.511Z,10
2019-04-22T00:29:49.103Z,10
2019-04-22T00:30:40.289Z,10
2019-04-22T00:31:20.515Z,10
2019-04-22T00:32:04.813Z,10
2019-04-22T00:33:44.925Z,9.9
2019-04-22T00:34:33.682Z,9.9
2019-04-22T00:35:23.471Z,9.9
2019-04-22T00:36:21.533Z,9.9
2019-04-22T00:37:07.677Z,9.9
2019-04-22T00:38:51.265Z,9.9
2019-04-22T00:39:40.792Z,9.8
2019-04-22T00:41:19.026Z,9.8
2019-04-22T00:42:07.590Z,9.8
2019-04-22T00:42:57.815Z,9.8
2019-04-22T00:43:56.435Z,9.8
2019-04-22T00:44:51.243Z,9.8
2019-04-22T00:45:32.727Z,9.7
2019-04-22T00:46:24.939Z,9.7
2019-04-22T00:47:16.181Z,9.7
2019-04-22T00:48:00.300Z,9.7
2019-04-22T00:48:53.072Z,9.7
2019-04-22T00:50:29.784Z,9.7
2019-04-22T00:51:22.316Z,9.6
2019-04-22T00:52:09.124Z,9.6
2019-04-22T00:53:03.683Z,9.6
2019-04-22T00:53:46.608Z,9.6
2019-04-22T00:54:45.416Z,9.6
2019-04-22T00:55:31.045Z,9.6
2019-04-22T00:56:15.573Z,9.6
2019-04-22T00:57:08.526Z,9.5
2019-04-22T00:58:01.100Z,9.5
2019-04-22T00:58:49.782Z,9.5
2019-04-22T00:59:37.238Z,9.5
2019-04-22T01:00:30.600Z,9.5
2019-04-22T01:01:23.301Z,9.5
2019-04-22T01:02:12.927Z,9.5
2019-04-22T01:03:01.458Z,9.5
2019-04-22T01:03:55.268Z,9.5
2019-04-22T01:05:33.988Z,9.5
2019-04-22T01:06:19.841Z,9.5
2019-04-22T01:07:11.125Z,9.5
2019-04-22T01:08:05.375Z,9.5
2019-04-22T01:09:44.393Z,9.5
2019-04-22T01:10:31.562Z,9.5
2019-04-22T01:11:22.527Z,9.5
2019-04-22T01:12:13.322Z,9.5
2019-04-22T01:12:56.582Z,9.6
2019-04-22T01:13:49.378Z,9.6
2019-04-22T01:14:41.161Z,9.6
2019-04-22T01:15:33.492Z,9.6
2019-04-22T01:16:22.483Z,9.6
2019-04-22T01:17:11.304Z,9.6
2019-04-22T01:17:57.180Z,9.6
2019-04-22T01:19:44.875Z,9.6
2019-04-22T01:20:54.161Z,9.6
2019-04-22T01:21:22.465Z,9.6
2019-04-22T01:22:12.809Z,9.6
2019-04-22T01:22:58.418Z,9.5
2019-04-22T01:23:47.354Z,9.6
2019-04-22T01:24:38.437Z,9.6
2019-04-22T01:25:23.062Z,9.6
2019-04-22T01:26:09.288Z,9.6
2019-04-22T01:27:01.726Z,9.5
2019-04-22T01:28:39.133Z,9.5
2019-04-22T01:29:30.236Z,9.5
2019-04-22T01:30:17.087Z,9.5
2019-04-22T01:31:04.625Z,9.5
2019-04-22T01:31:48.887Z,9.5
2019-04-22T01:32:41.602Z,9.4
2019-04-22T01:33:35.081Z,9.4
2019-04-22T01:34:33.029Z,9.4
2019-04-22T01:35:20.652Z,9.4
2019-04-22T01:36:13.519Z,9.4
2019-04-22T01:37:02.339Z,9.4
2019-04-22T01:37:54.027Z,9.3
2019-04-22T01:38:51.022Z,9.3
2019-04-22T01:39:43.352Z,9.3
2019-04-22T01:40:30.800Z,9.3
2019-04-22T01:41:22.814Z,9.3
2019-04-22T01:42:08.991Z,9.3
2019-04-22T01:43:06.789Z,9.2
2019-04-22T01:43:58.557Z,9.2
2019-04-22T01:44:43.590Z,9.2
2019-04-22T01:45:31.089Z,9.2
2019-04-22T01:46:24.559Z,9.2
2019-04-22T01:47:09.920Z,9.1
2019-04-22T01:48:02.127Z,9.1
2019-04-22T01:48:54.155Z,9.1
2019-04-22T01:49:39.691Z,9.1
2019-04-22T01:50:30.503Z,9.1
2019-04-22T01:51:28.095Z,9.1
2019-04-22T01:52:11.272Z,9.1
2019-04-22T01:53:04.642Z,9.1
2019-04-22T01:55:03.741Z,9.1
2019-04-22T01:56:19.314Z,9.1
2019-04-22T01:57:59.090Z,9
2019-04-22T01:58:43.765Z,9
2019-04-22T01:59:35.365Z,9
2019-04-22T02:00:35.359Z,9
2019-04-22T02:01:21.911Z,9
2019-04-22T02:02:16.018Z,9
2019-04-22T02:03:03.990Z,9
2019-04-22T02:03:54.320Z,9
2019-04-22T02:04:42.858Z,9
2019-04-22T02:05:33.888Z,9
2019-04-22T02:06:21.716Z,9
2019-04-22T02:07:16.038Z,9
2019-04-22T02:08:03.915Z,8.9
2019-04-22T02:09:37.609Z,8.9
2019-04-22T02:11:25.384Z,8.9
2019-04-22T02:12:12.716Z,8.8
2019-04-22T02:12:59.805Z,8.8
2019-04-22T02:13:55.960Z,8.8
2019-04-22T02:14:43.856Z,8.8
2019-04-22T02:15:30.859Z,8.8
2019-04-22T02:16:27.170Z,8.7
2019-04-22T02:17:17.296Z,8.7
2019-04-22T02:18:09.458Z,8.7
2019-04-22T02:18:51.942Z,8.7
2019-04-22T02:19:45.380Z,8.7
2019-04-22T02:20:35.700Z,8.6
2019-04-22T02:21:19.989Z,8.6
2019-04-22T02:22:17.445Z,8.6
2019-04-22T02:23:15.102Z,8.6
2019-04-22T02:23:53.090Z,8.6
2019-04-22T02:24:43.675Z,8.6
2019-04-22T02:25:32.081Z,8.5
2019-04-22T02:26:25.173Z,8.5
2019-04-22T02:27:10.327Z,8.5
2019-04-22T02:28:04.750Z,8.5
2019-04-22T02:28:44.043Z,8.4
2019-04-22T02:29:47.159Z,8.4
2019-04-22T02:30:49.146Z,8.4
2019-04-22T02:32:26.746Z,8.4
2019-04-22T02:33:24.616Z,8.4
2019-04-22T02:35:03.297Z,8.3
2019-04-22T02:35:47.914Z,8.3
2019-04-22T02:36:28.895Z,8.3
2019-04-22T02:37:18.442Z,8.3
2019-04-22T02:39:03.766Z,8.3
2019-04-22T02:39:40.804Z,8.2
2019-04-22T02:40:55.761Z,8.2
2019-04-22T02:41:22.044Z,8.2
2019-04-22T02:42:13.622Z,8.2
2019-04-22T02:43:10.990Z,8.2
2019-04-22T02:44:08.021Z,8.2
2019-04-22T02:44:46.390Z,8.1
2019-04-22T02:45:49.698Z,8.1
2019-04-22T02:46:32.200Z,8.1
2019-04-22T02:48:09.617Z,8.1
2019-04-22T02:49:10.709Z,8.1
2019-04-22T02:49:44.853Z,8.1
2019-04-22T02:50:36.008Z,8
2019-04-22T02:53:13.054Z,8
2019-04-22T02:54:21.350Z,8
2019-04-22T02:54:54.349Z,8
2019-04-22T02:55:40.562Z,7.9
2019-04-22T02:56:31.219Z,7.9
2019-04-22T02:58:12.286Z,7.9
2019-04-22T02:59:56.461Z,7.9
2019-04-22T03:01:35.911Z,7.8
2019-04-22T03:03:20.280Z,7.8
2019-04-22T03:04:43.501Z,7.8
2019-04-22T03:05:44.855Z,7.8
2019-04-22T03:07:14.452Z,7.7
2019-04-22T03:08:14.343Z,7.7
2019-04-22T03:09:02.918Z,7.7
2019-04-22T03:09:52.476Z,7.7
2019-04-22T03:10:45.953Z,7.6
2019-04-22T03:11:32.724Z,7.6
2019-04-22T03:13:20.897Z,7.6
2019-04-22T03:14:11.171Z,7.6
2019-04-22T03:14:47.689Z,7.5
2019-04-22T03:15:50.703Z,7.5
2019-04-22T03:16:37.417Z,7.5
2019-04-22T03:17:20.309Z,7.5
2019-04-22T03:18:19.170Z,7.4
2019-04-22T03:19:13.556Z,7.4
2019-04-22T03:20:41.045Z,7.4
2019-04-22T03:21:30.941Z,7.4
2019-04-22T03:22:20.506Z,7.3
2019-04-22T03:23:33.865Z,7.3
2019-04-22T03:24:15.360Z,7.3
2019-04-22T03:27:15.589Z,7.2
2019-04-22T03:28:18.392Z,7.2
2019-04-22T03:29:02.469Z,7.2
2019-04-22T03:30:15.943Z,7.2
2019-04-22T03:31:57.346Z,7.1
2019-04-22T03:34:54.108Z,7.1
2019-04-22T03:36:57.010Z,7.1
2019-04-22T03:37:03.441Z,7.1
2019-04-22T03:37:31.662Z,7
2019-04-22T03:38:06.983Z,7
2019-04-22T03:40:45.968Z,7
2019-04-22T03:41:47.365Z,7
2019-04-22T03:42:43.400Z,6.9
2019-04-22T03:43:13.054Z,6.9
2019-04-22T03:44:59.897Z,6.9
2019-04-22T03:45:37.593Z,6.9
2019-04-22T03:46:41.590Z,6.9
2019-04-22T03:47:33.346Z,6.9
2019-04-22T03:48:25.454Z,6.9
2019-04-22T03:50:35.921Z,6.8
2019-04-22T03:51:45.446Z,6.8
2019-04-22T03:52:19.948Z,6.8
2019-04-22T03:54:09.806Z,6.7
2019-04-22T03:55:01.632Z,6.7
2019-04-22T03:55:42.942Z,6.7
2019-04-22T03:57:06.729Z,6.7
2019-04-22T03:57:51.748Z,6.7
2019-04-22T03:59:26.414Z,6.7
2019-04-22T03:59:47.467Z,6.7
2019-04-22T04:01:43.572Z,6.6
2019-04-22T04:03:11.469Z,6.6
2019-04-22T04:04:15.046Z,6.6
2019-04-22T04:04:49.176Z,6.6
2019-04-22T04:06:49.490Z,6.5
2019-04-22T04:07:19.875Z,6.5
2019-04-22T04:08:26.172Z,6.5
2019-04-22T04:09:08.733Z,6.5
2019-04-22T04:09:57.981Z,6.5
2019-04-22T04:10:47.472Z,6.5
2019-04-22T04:11:42.566Z,6.4
2019-04-22T04:12:23.176Z,6.4
2019-04-22T04:13:02.603Z,6.4
2019-04-22T04:14:09.116Z,6.4
2019-04-22T04:15:33.843Z,6.4
2019-04-22T04:16:38.571Z,6.4
2019-04-22T04:18:08.945Z,6.4
2019-04-22T04:20:05.337Z,6.3
2019-04-22T04:20:44.392Z,6.3
2019-04-22T04:22:51.989Z,6.3
2019-04-22T04:23:28.387Z,6.3
2019-04-22T04:24:00.487Z,6.3
2019-04-22T04:25:05.127Z,6.3
2019-04-22T04:25:42.056Z,6.3
2019-04-22T04:27:42.527Z,6.3
2019-04-22T04:28:29.095Z,6.3
2019-04-22T04:29:25.108Z,6.2
2019-04-22T04:30:04.950Z,6.3
2019-04-22T04:30:35.654Z,6.2
2019-04-22T04:31:40.466Z,6.2
2019-04-22T04:32:33.881Z,6.2
2019-04-22T04:33:15.585Z,6.2
2019-04-22T04:35:02.924Z,6.2
2019-04-22T04:35:45.758Z,6.2
2019-04-22T04:36:33.885Z,6.2
2019-04-22T04:37:40.074Z,6.2
2019-04-22T04:40:39.687Z,6.2
2019-04-22T04:41:51.556Z,6.2
2019-04-22T04:42:32.354Z,6.2
2019-04-22T04:43:15.403Z,6.2
2019-04-22T04:44:10.190Z,6.2
2019-04-22T04:45:10.675Z,6.2
2019-04-22T04:48:11.084Z,6.1
2019-04-22T04:49:17.495Z,6.1
2019-04-22T04:49:56.710Z,6.1
2019-04-22T04:50:46.793Z,6.1
2019-04-22T04:52:38.356Z,6.2
2019-04-22T04:54:58.608Z,6.2
2019-04-22T04:55:45.393Z,6.1
2019-04-22T04:56:35.737Z,6.2
2019-04-22T04:58:24.698Z,6.1
2019-04-22T05:00:21.490Z,6.2
2019-04-22T05:01:35.010Z,6.2
2019-04-22T05:02:28.485Z,6.2
2019-04-22T05:03:20.071Z,6.2
2019-04-22T05:05:02.471Z,6.2
2019-04-22T05:05:39.338Z,6.2
2019-04-22T05:06:42.467Z,6.2
2019-04-22T05:08:11.765Z,6.2
2019-04-22T05:09:58.949Z,6.2
2019-04-22T05:11:44.716Z,6.3
2019-04-22T05:12:33.303Z,6.3
2019-04-22T05:13:10.005Z,6.3
2019-04-22T05:14:05.303Z,6.3
2019-04-22T05:14:36.542Z,6.3
2019-04-22T05:15:59.256Z,6.3
2019-04-22T05:17:25.017Z,6.3
2019-04-22T05:18:12.155Z,6.3
2019-04-22T05:19:56.437Z,6.4
2019-04-22T05:20:50.404Z,6.4
2019-04-22T05:21:29.337Z,6.4
2019-04-22T05:22:20.194Z,6.4
2019-04-22T05:23:15.814Z,6.4
2019-04-22T05:24:50.517Z,6.5
2019-04-22T05:25:31.460Z,6.5
2019-04-22T05:26:32.359Z,6.5
2019-04-22T05:28:09.935Z,6.6
2019-04-22T05:28:49.755Z,6.6
2019-04-22T05:30:00.001Z,6.6
2019-04-22T05:30:38.985Z,6.6
2019-04-22T05:31:31.963Z,6.6
2019-04-22T05:32:16.266Z,6.7
2019-04-22T05:33:06.892Z,6.7
2019-04-22T05:34:47.754Z,6.8
2019-04-22T05:35:37.359Z,6.8
2019-04-22T05:36:27.904Z,6.8
2019-04-22T05:37:20.400Z,6.8
2019-04-22T05:38:16.929Z,6.9
2019-04-22T05:38:59.668Z,6.9
2019-04-22T05:39:48.372Z,6.9
2019-04-22T05:40:34.002Z,7
2019-04-22T05:41:28.555Z,7
2019-04-22T05:42:17.513Z,7.1
2019-04-22T05:43:07.469Z,7.1
2019-04-22T05:44:02.626Z,7.1
2019-04-22T05:44:54.739Z,7.2
2019-04-22T05:45:36.708Z,7.2
2019-04-22T05:46:28.134Z,7.2
2019-04-22T05:47:19.272Z,7.2
2019-04-22T05:48:09.211Z,7.3
2019-04-22T05:48:58.518Z,7.3
2019-04-22T05:49:47.272Z,7.3
2019-04-22T05:50:36.527Z,7.4
2019-04-22T05:51:30.927Z,7.4
2019-04-22T05:52:20.044Z,7.4
2019-04-22T05:53:06.347Z,7.5
2019-04-22T05:54:00.964Z,7.5
2019-04-22T05:54:46.673Z,7.5
2019-04-22T05:55:41.356Z,7.6
2019-04-22T05:57:23.178Z,7.6
2019-04-22T05:58:08.139Z,7.7
2019-04-22T05:59:51.797Z,7.8
2019-04-22T06:01:03.477Z,7.8
2019-04-22T06:01:37.786Z,7.9
2019-04-22T06:02:30.235Z,8
2019-04-22T06:03:08.354Z,8
2019-04-22T06:04:51.646Z,8.2
2019-04-22T06:05:30.136Z,8.3
2019-04-22T06:06:39.773Z,8.3
2019-04-22T06:07:19.057Z,8.3
2019-04-22T06:08:10.078Z,8.3
2019-04-22T06:09:48.755Z,8.4
2019-04-22T06:10:45.192Z,8.5
2019-04-22T06:11:28.995Z,8.5
2019-04-22T06:12:16.812Z,8.6
2019-04-22T06:13:04.231Z,8.7
2019-04-22T06:14:00.758Z,8.8
2019-04-22T06:14:53.607Z,8.8
2019-04-22T06:15:37.112Z,8.9
2019-04-22T06:16:36.865Z,8.9
2019-04-22T06:17:23.780Z,9
2019-04-22T06:19:06.973Z,9.1
2019-04-22T06:19:50.310Z,9.1
2019-04-22T06:20:45.258Z,9.2
2019-04-22T06:22:29.939Z,9.2
2019-04-22T06:23:17.214Z,9.2
2019-04-22T06:24:10.439Z,9.3
2019-04-22T06:24:55.051Z,9.3
2019-04-22T06:25:56.944Z,9.3
2019-04-22T06:26:45.604Z,9.3
2019-04-22T06:27:27.596Z,9.4
2019-04-22T06:28:21.871Z,9.4
2019-04-22T06:29:09.045Z,9.4
2019-04-22T06:29:41.033Z,9.5
2019-04-22T06:30:48.231Z,9.5
2019-04-22T06:31:42.067Z,9.5
2019-04-22T06:33:20.039Z,9.6
2019-04-22T06:34:10.146Z,9.6
2019-04-22T06:34:57.856Z,9.6
2019-04-22T06:35:48.483Z,9.7
2019-04-22T06:36:35.744Z,9.7
2019-04-22T06:37:22.027Z,9.8
2019-04-22T06:39:07.231Z,9.8
2019-04-22T06:39:50.372Z,9.8
2019-04-22T06:40:46.365Z,9.8
2019-04-22T06:41:32.867Z,9.9
2019-04-22T06:42:28.117Z,9.9
2019-04-22T06:43:15.609Z,9.9
2019-04-22T06:44:10.618Z,10
2019-04-22T06:45:10.531Z,10
2019-04-22T06:45:43.360Z,10.1
2019-04-22T06:46:51.779Z,10.1
2019-04-22T06:47:43.683Z,10.1
2019-04-22T06:48:12.386Z,10.2
2019-04-22T06:49:08.935Z,10.2
2019-04-22T06:49:54.341Z,10.2
2019-04-22T06:50:47.391Z,10.3
2019-04-22T06:51:36.884Z,10.3
2019-04-22T06:52:20.502Z,10.4
2019-04-22T06:53:16.110Z,10.4
2019-04-22T06:54:07.096Z,10.4
2019-04-22T06:54:58.896Z,10.4
2019-04-22T06:55:45.238Z,10.5
2019-04-22T06:56:34.576Z,10.5
2019-04-22T06:57:25.065Z,10.6
2019-04-22T06:58:14.891Z,10.6
2019-04-22T06:58:57.505Z,10.6
2019-04-22T06:59:58.409Z,10.7
2019-04-22T07:00:44.258Z,10.8
2019-04-22T07:01:54.372Z,10.8
2019-04-22T07:02:31.812Z,10.8
2019-04-22T07:04:02.613Z,11
2019-04-22T07:04:56.130Z,11
2019-04-22T07:05:46.194Z,11.1
2019-04-22T07:06:41.409Z,11.2
2019-04-22T07:07:23.368Z,11.3
2019-04-22T07:08:38.901Z,11.3
2019-04-22T07:10:06.234Z,11.5
2019-04-22T07:10:47.529Z,11.6
2019-04-22T07:11:35.877Z,11.7
2019-04-22T07:12:34.230Z,11.8
2019-04-22T07:13:27.016Z,11.8
2019-04-22T07:15:10.881Z,12
2019-04-22T07:15:57.254Z,12.2
2019-04-22T07:16:43.039Z,12.3
2019-04-22T07:17:35.332Z,12.4
2019-04-22T07:19:13.407Z,12.5
2019-04-22T07:20:09.978Z,12.6
2019-04-22T07:20:56.184Z,12.6
2019-04-22T07:21:49.911Z,12.6
2019-04-22T07:22:33.323Z,12.6
2019-04-22T07:24:53.635Z,12.6
2019-04-22T07:25:34.379Z,12.6
2019-04-22T07:26:24.017Z,12.6
2019-04-22T07:27:14.152Z,12.6
2019-04-22T07:28:54.746Z,12.6
2019-04-22T07:29:55.194Z,12.6
2019-04-22T07:30:38.533Z,12.6
2019-04-22T07:31:26.479Z,12.6
2019-04-22T07:32:20.448Z,12.6
2019-04-22T07:34:07.916Z,12.6
2019-04-22T07:34:51.692Z,12.6
2019-04-22T07:35:35.711Z,12.6
2019-04-22T07:36:45.376Z,12.6
2019-04-22T07:37:31.217Z,12.7
2019-04-22T07:38:17.369Z,12.7
2019-04-22T07:39:03.844Z,12.7
2019-04-22T07:39:49.661Z,12.8
2019-04-22T07:40:59.109Z,12.8
2019-04-22T07:41:37.083Z,12.8
2019-04-22T07:42:30.893Z,12.9
2019-04-22T07:43:19.427Z,12.9
2019-04-22T07:44:04.680Z,12.9
2019-04-22T07:44:54.625Z,12.9
2019-04-22T07:46:41.286Z,13
2019-04-22T07:47:31.002Z,13
2019-04-22T07:48:25.961Z,13.1
2019-04-22T07:49:10.337Z,13.1
2019-04-22T07:50:04.937Z,13.2
2019-04-22T07:51:43.469Z,13.2
2019-04-22T07:52:33.260Z,13.3
2019-04-22T07:53:21.464Z,13.3
2019-04-22T07:54:13.011Z,13.5
2019-04-22T07:55:00.591Z,13.6
2019-04-22T07:55:51.636Z,13.6
2019-04-22T07:56:43.497Z,13.6
2019-04-22T07:57:32.205Z,13.6
2019-04-22T07:58:23.680Z,13.7
2019-04-22T07:59:15.020Z,13.8
2019-04-22T08:00:08.542Z,13.8
2019-04-22T08:01:01.794Z,13.9
2019-04-22T08:01:41.349Z,14
2019-04-22T08:02:43.466Z,14.1
2019-04-22T08:03:43.741Z,14.2
2019-04-22T08:07:23.630Z,14.7
2019-04-22T08:08:19.281Z,14.8
2019-04-22T08:10:06.657Z,15
2019-04-22T08:10:48.146Z,15.1
2019-04-22T08:12:38.379Z,15.3
2019-04-22T08:13:30.231Z,15.6
2019-04-22T08:14:14.038Z,15.8
2019-04-22T08:15:05.300Z,16
2019-04-22T08:15:57.933Z,16.1
2019-04-22T08:16:49.230Z,16.3
2019-04-22T08:17:54.581Z,16.5
2019-04-22T08:18:38.900Z,16.5
2019-04-22T08:19:55.448Z,16.6
2019-04-22T08:20:40.216Z,16.6
2019-04-22T08:23:04.056Z,16.9
2019-04-22T08:24:01.038Z,17.2
2019-04-22T08:24:53.839Z,17.4
2019-04-22T08:25:47.264Z,17.6
2019-04-22T08:26:37.777Z,17.8
2019-04-22T08:27:34.955Z,18
2019-04-22T08:28:30.146Z,18.2
2019-04-22T08:29:25.004Z,18.4
2019-04-22T08:30:13.755Z,18.5
2019-04-22T08:30:59.476Z,18.6
2019-04-22T08:31:54.633Z,18.7
2019-04-22T08:32:45.330Z,18.9
2019-04-22T08:34:36.630Z,18.8
2019-04-22T08:36:25.461Z,18.9
2019-04-22T08:38:14.423Z,19.1
2019-04-22T08:40:19.811Z,19.3
2019-04-22T08:41:16.187Z,19.4
2019-04-22T08:42:17.580Z,19.4
2019-04-22T17:17:20.183Z,23.7
2019-04-22T17:18:09.763Z,23.7
2019-04-22T17:19:00.524Z,23.7
2019-04-22T17:19:51.443Z,23.8
2019-04-22T17:20:40.661Z,23.8
2019-04-22T17:21:31.749Z,23.8
2019-04-22T17:22:21.703Z,23.8
2019-04-22T17:23:11.910Z,23.8
2019-04-22T17:24:01.454Z,23.7
2019-04-22T17:24:51.167Z,23.7
2019-04-22T17:25:42.597Z,23.7
2019-04-22T17:26:32.457Z,23.7
2019-04-22T17:27:22.348Z,23.6
2019-04-22T17:28:11.222Z,23.6
2019-04-22T17:29:04.575Z,23.5
2019-04-22T17:29:52.372Z,23.5
2019-04-22T17:30:41.507Z,23.5
2019-04-22T17:31:31.180Z,23.4
2019-04-22T17:32:23.410Z,23.4
2019-04-22T17:33:12.612Z,23.3
2019-04-22T17:34:02.451Z,23.3
2019-04-22T17:34:53.516Z,23.2
2019-04-22T17:35:45.258Z,23.1
2019-04-22T17:36:32.381Z,23.1
2019-04-22T17:37:26.192Z,23.1
2019-04-22T17:38:20.882Z,23
2019-04-22T17:39:17.009Z,23
2019-04-22T17:40:05.511Z,23
2019-04-22T17:40:50.892Z,23
2019-04-22T17:41:41.684Z,23
2019-04-22T17:42:35.221Z,23
2019-04-22T17:43:40.308Z,23
2019-04-22T17:44:24.799Z,23
2019-04-22T17:45:15.541Z,22.9
2019-04-22T17:45:55.646Z,23
2019-04-22T17:46:40.038Z,23
2019-04-22T17:47:32.828Z,22.9
2019-04-22T17:48:30.241Z,23
2019-04-22T17:49:20.406Z,22.9
2019-04-22T17:50:11.357Z,22.9
2019-04-22T17:51:08.849Z,22.8
2019-04-22T17:51:53.309Z,22.8
2019-04-22T17:52:35.939Z,22.7
2019-04-22T17:53:33.190Z,22.7
2019-04-22T17:54:18.915Z,22.6
2019-04-22T17:55:04.323Z,22.6
2019-04-22T17:56:08.074Z,22.5
2019-04-22T17:57:52.171Z,22.4
2019-04-22T17:59:02.044Z,22.3
2019-04-22T18:01:14.546Z,22.2
2019-04-22T18:03:02.955Z,22.1
2019-04-22T18:03:49.572Z,22
2019-04-22T18:04:38.541Z,22
2019-04-22T18:05:34.526Z,22
2019-04-22T18:06:43.928Z,22
2019-04-22T18:07:38.179Z,21.9
2019-04-22T18:08:34.151Z,21.9
2019-04-22T18:11:01.951Z,21.7
2019-04-22T18:11:50.559Z,21.7
2019-04-22T18:12:58.465Z,21.6
2019-04-22T18:14:34.264Z,21.5
2019-04-22T18:15:13.244Z,21.5
2019-04-22T18:16:11.664Z,21.5
2019-04-22T18:17:06.729Z,21.4
2019-04-22T18:18:00.410Z,21.4
2019-04-22T18:18:42.722Z,21.3
2019-04-22T18:19:39.427Z,21.3
2019-04-22T18:20:33.238Z,21.3
2019-04-22T18:21:26.255Z,21.2
2019-04-22T18:25:11.109Z,21.1
2019-04-22T18:26:12.218Z,21.1
2019-04-22T18:27:06.761Z,21
2019-04-22T18:27:58.461Z,21
2019-04-22T18:28:49.146Z,20.9
2019-04-22T18:36:03.525Z,20.4
2019-04-22T18:36:54.650Z,20.4
2019-04-22T18:37:53.298Z,20.4
2019-04-22T18:38:51.293Z,20.4
2019-04-22T18:43:41.834Z,20.2
2019-04-22T18:44:32.326Z,20.1
2019-04-22T18:46:14.170Z,20.1
2019-04-22T18:47:00.757Z,20
2019-04-22T18:47:48.691Z,20
2019-04-22T18:48:43.896Z,20
2019-04-22T18:49:37.004Z,19.9
2019-04-22T18:50:31.806Z,19.9
2019-04-22T18:51:24.307Z,19.9
2019-04-22T18:52:03.983Z,19.9
2019-04-22T18:52:52.838Z,19.8
2019-04-22T18:53:46.367Z,19.8
2019-04-22T18:54:35.889Z,19.7
2019-04-22T18:55:21.869Z,19.7
2019-04-22T18:56:15.921Z,19.6
2019-04-22T18:57:02.186Z,19.6
2019-04-22T18:57:43.888Z,19.6
2019-04-22T18:58:38.940Z,19.5
2019-04-22T18:59:22.408Z,19.5
2019-04-22T19:00:07.008Z,19.5
2019-04-22T19:01:01.776Z,19.5
2019-04-22T19:01:52.227Z,19.4
2019-04-22T19:02:50.641Z,19.4
2019-04-22T19:03:40.563Z,19.4
2019-04-22T19:04:27.376Z,19.3
2019-04-22T19:07:34.464Z,19.3
2019-04-22T19:08:22.432Z,19.2
2019-04-22T19:09:10.407Z,19.2
2019-04-22T19:10:02.925Z,19.2
2019-04-22T19:10:51.636Z,19.1
2019-04-22T19:11:42.599Z,19.1
2019-04-22T19:12:33.599Z,19.1
2019-04-22T19:17:03.712Z,18.8
2019-04-22T19:18:01.568Z,18.8
2019-04-22T19:18:45.742Z,18.8
2019-04-22T19:19:32.090Z,18.7
2019-04-22T19:20:37.251Z,18.7
2019-04-22T19:21:19.129Z,18.7
2019-04-22T19:22:11.598Z,18.7
2019-04-22T19:23:03.604Z,18.7
2019-04-22T19:23:53.793Z,18.7
2019-04-22T19:24:41.364Z,18.6
2019-04-22T19:25:28.923Z,18.6
2019-04-22T19:26:35.572Z,18.6
2019-04-22T19:27:15.111Z,18.5
2019-04-22T19:28:11.271Z,18.5
2019-04-22T19:28:53.934Z,18.4
2019-04-22T19:29:42.915Z,18.4
2019-04-22T19:30:36.347Z,18.4
2019-04-22T19:31:24.353Z,18.3
2019-04-22T19:32:11.258Z,18.3
2019-04-22T19:33:10.463Z,18.2
2019-04-22T19:33:57.304Z,18.2
2019-04-22T19:34:42.600Z,18.1
2019-04-22T19:35:29.657Z,18.1
2019-04-22T19:36:25.091Z,18.1
2019-04-22T19:37:12.815Z,18.1
2019-04-22T19:37:57.243Z,18
2019-04-22T19:38:52.331Z,18
2019-04-22T19:39:52.354Z,18
2019-04-22T19:40:40.252Z,17.9
2019-04-22T19:41:28.914Z,17.9
2019-04-22T19:42:23.515Z,17.9
2019-04-22T19:43:08.263Z,17.8
2019-04-22T19:43:56.538Z,17.8
2019-04-22T19:44:42.667Z,17.8
2019-04-22T19:46:22.000Z,17.7
2019-04-22T19:48:21.273Z,17.7
2019-04-22T19:49:09.925Z,17.7
2019-04-22T19:50:03.690Z,17.6
2019-04-22T19:50:57.389Z,17.6
2019-04-22T19:51:45.412Z,17.6
2019-04-22T19:52:33.177Z,17.5
2019-04-22T19:53:22.492Z,17.5
2019-04-22T19:54:07.278Z,17.5
2019-04-22T19:55:00.980Z,17.4
2019-04-22T19:55:45.795Z,17.4
2019-04-22T19:56:32.139Z,17.4
2019-04-22T19:58:14.584Z,17.3
2019-04-22T19:59:01.942Z,17.3
2019-04-22T20:00:01.477Z,17.3
2019-04-22T20:00:45.812Z,17.2
2019-04-22T20:01:41.447Z,17.2
2019-04-22T20:02:28.481Z,17.1
2019-04-22T20:03:28.660Z,17.1
2019-04-22T20:04:21.444Z,17.1
2019-04-22T20:05:05.680Z,17
2019-04-22T20:05:52.358Z,17
2019-04-22T20:06:41.051Z,17
2019-04-22T20:07:31.343Z,17
2019-04-22T20:08:24.945Z,16.9
2019-04-22T20:09:19.090Z,16.9
2019-04-22T20:10:04.202Z,16.9
2019-04-22T20:10:49.867Z,16.8
2019-04-22T20:11:43.277Z,16.8
2019-04-22T20:12:30.342Z,16.7
2019-04-22T20:13:30.011Z,16.7
2019-04-22T20:14:16.404Z,16.6
2019-04-22T20:15:00.088Z,16.6
2019-04-22T20:15:45.809Z,16.6
2019-04-22T20:16:37.272Z,16.5
2019-04-22T20:18:08.433Z,16.5
2019-04-22T20:18:34.171Z,16.4
2019-04-22T20:19:18.733Z,16.4
2019-04-22T20:20:07.767Z,16.4
2019-04-22T20:20:57.948Z,16.3
2019-04-22T20:21:46.371Z,16.3
2019-04-22T20:22:32.510Z,16.3
2019-04-22T20:23:18.044Z,16.2
2019-04-22T20:24:04.196Z,16.2
2019-04-22T20:24:53.711Z,16.1
2019-04-22T20:25:50.833Z,16.1
2019-04-22T20:26:49.297Z,16
2019-04-22T20:27:36.183Z,16
2019-04-22T20:28:23.737Z,15.9
2019-04-22T20:29:20.145Z,15.9
2019-04-22T20:30:04.087Z,15.9
2019-04-22T20:30:54.891Z,15.8
2019-04-22T20:31:49.367Z,15.8
2019-04-22T20:32:30.868Z,15.8
2019-04-22T20:33:28.904Z,15.8
2019-04-22T20:34:19.433Z,15.8
2019-04-22T20:35:07.246Z,15.8
2019-04-22T20:35:56.471Z,15.8
2019-04-22T20:37:38.265Z,15.8
2019-04-22T20:38:24.465Z,15.7
2019-04-22T20:39:10.379Z,15.7
2019-04-22T20:40:05.298Z,15.7
2019-04-22T20:40:54.847Z,15.6
2019-04-22T20:41:40.860Z,15.6
2019-04-22T20:42:43.066Z,15.6
2019-04-22T20:43:34.866Z,15.6
2019-04-22T20:44:15.529Z,15.5
2019-04-22T20:45:09.446Z,15.5
2019-04-22T20:45:57.293Z,15.5
2019-04-22T20:46:43.301Z,15.5
2019-04-22T20:47:30.130Z,15.5
2019-04-22T20:48:17.516Z,15.5
2019-04-22T20:49:18.329Z,15.5
2019-04-22T20:49:58.546Z,15.4
2019-04-22T20:50:57.526Z,15.4
2019-04-22T20:51:52.672Z,15.4
2019-04-22T20:52:38.027Z,15.4
2019-04-22T20:53:29.659Z,15.4
2019-04-22T20:54:15.632Z,15.3
2019-04-22T20:55:02.409Z,15.3
2019-04-22T20:55:58.581Z,15.3
2019-04-22T20:56:43.707Z,15.3
2019-04-22T20:57:40.064Z,15.2
2019-04-22T20:58:28.140Z,15.2
2019-04-22T20:59:17.663Z,15.2
2019-04-22T21:00:01.935Z,15.2
2019-04-22T21:00:50.107Z,15.2
2019-04-22T21:01:42.819Z,15.1
2019-04-22T21:02:29.919Z,15.1
2019-04-22T21:03:20.702Z,15.1
2019-04-22T21:04:11.198Z,15.1
2019-04-22T21:04:58.568Z,15.1
2019-04-22T21:05:52.476Z,15
2019-04-22T21:06:51.097Z,15
2019-04-22T21:07:36.601Z,15
2019-04-22T21:08:34.903Z,15
2019-04-22T21:09:27.113Z,14.9
2019-04-22T21:10:11.309Z,14.9
2019-04-22T21:10:58.334Z,14.9
2019-04-22T21:11:51.644Z,14.9
2019-04-22T21:12:35.984Z,14.9
2019-04-22T21:13:27.446Z,14.9
2019-04-22T21:14:22.997Z,14.9
2019-04-22T21:15:19.205Z,14.9
2019-04-22T21:16:08.819Z,14.9
2019-04-22T21:16:55.858Z,14.8
2019-04-22T21:17:44.516Z,14.8
2019-04-22T21:18:30.301Z,14.8
2019-04-22T21:19:35.070Z,14.7
2019-04-22T21:20:17.059Z,14.7
2019-04-22T21:21:06.928Z,14.7
2019-04-22T21:21:56.240Z,14.7
2019-04-22T21:22:43.170Z,14.6
2019-04-22T21:23:26.323Z,14.6
2019-04-22T21:24:23.457Z,14.6
2019-04-22T21:25:08.707Z,14.5
2019-04-22T21:26:07.871Z,14.5
2019-04-22T21:26:53.585Z,14.5
2019-04-22T21:27:49.234Z,14.5
2019-04-22T21:28:38.010Z,14.5
2019-04-22T21:29:19.860Z,14.4
2019-04-22T21:30:07.499Z,14.4
2019-04-22T21:31:02.443Z,14.4
2019-04-22T21:32:00.905Z,14.4
2019-04-22T21:32:44.546Z,14.4
2019-04-22T21:33:28.771Z,14.3
2019-04-22T21:34:23.052Z,14.3
2019-04-22T21:35:19.627Z,14.3
2019-04-22T21:36:13.611Z,14.3
2019-04-22T21:37:02.181Z,14.3
2019-04-22T21:37:49.809Z,14.3
2019-04-22T21:38:37.059Z,14.3
2019-04-22T21:39:23.003Z,14.3
2019-04-22T21:40:11.736Z,14.3
2019-04-22T21:41:04.618Z,14.3
2019-04-22T21:41:51.248Z,14.2
2019-04-22T21:43:35.506Z,14.2
2019-04-22T21:44:24.590Z,14.2
2019-04-22T21:45:07.033Z,14.1
2019-04-22T21:46:07.999Z,14.1
2019-04-22T21:47:02.864Z,14.1
2019-04-22T21:47:56.955Z,14.1
2019-04-22T21:49:29.344Z,14
2019-04-22T21:50:34.957Z,14
2019-04-22T21:51:10.605Z,14
2019-04-22T21:52:05.169Z,14
2019-04-22T21:52:48.919Z,14
2019-04-22T21:53:43.122Z,14
2019-04-22T21:54:31.449Z,14
2019-04-22T21:55:22.440Z,14
2019-04-22T21:56:22.227Z,13.9
2019-04-22T21:57:07.257Z,13.9
2019-04-22T21:57:50.006Z,13.9